EGJB Airport Information

Runway Information
Runway 09 Length 5194 ft width 148 ft Elevation 302 ft Threshold 33 ft Heading 88
Runway 27 Length 5194 ft Width 148 ft Elevation 336 ft Threshold 33 ft Heading 268
Airport Frequencies
Type APP Name APP Frequency 128.65 MHZ
Type ATIS Name ATIS Frequency 109.4 MHZ
Type GND Name GND Frequency 121.8 MHZ
Type TWR Name TWR Frequency 119.95 MHZ
Airport Navaids
Type NDB Name Guernsey Frequency 361 KHZ
Type VOR-DME Name Guernsey Frequency 109400 KHZ
Type NDB Name Guernsey Frequency 361 KHZ
Airport Weather Information & NOTAM
ADDS - METARS form results

(1835 UTC 02 December 2022)
Data provider http://aviationweather.gov/metar/data/
 
METAR text: EGJB 021820Z 05012KT 010V080 9999 FEW020 09/03 Q1021
Conditions at: EGJB (GUERNSEY AIRPORT, GG) observed 1820 UTC 02 December 2022
Temperature: 9.0°C (48°F)
Dewpoint: 3.0°C (37°F) [RH = 66%]
Pressure (altimeter): 30.15 inches Hg (1021.0 mb)
Winds: from the NE (50 degrees) at 14 MPH (12 knots; 6.2 m/s)
Visibility: 6 or more miles (10+ km)
Ceiling: at least 12,000 feet AGL
Clouds: few clouds at 2000 feet AGL
Weather: no significant weather observed at this time

METAR text: EGJB 021750Z 05010KT 9999 FEW014 08/04 Q1021
Conditions at: EGJB (GUERNSEY AIRPORT, GG) observed 1750 UTC 02 December 2022
Temperature: 8.0°C (46°F)
Dewpoint: 4.0°C (39°F) [RH = 76%]
Pressure (altimeter): 30.15 inches Hg (1021.0 mb)
Winds: from the NE (50 degrees) at 12 MPH (10 knots; 5.1 m/s)
Visibility: 6 or more miles (10+ km)
Ceiling: at least 12,000 feet AGL
Clouds: few clouds at 1400 feet AGL
Weather: no significant weather observed at this time

Forecast for: EGJB (GUERNSEY AIRPORT, GG)
Text: TAF EGJB 021703Z 0218/0303 05014KT 9999 FEW008 SCT012 BKN044
Forecast period: 1800 UTC 02 December 2022 to 0300 UTC 03 December 2022
Forecast type: FROM: standard forecast or significant change
Winds: from the NE (50 degrees) at 16 MPH (14 knots; 7.2 m/s)
Visibility: 6 or more miles (10+ km)
Ceiling: 4400 feet AGL
Clouds: few clouds at 800 feet AGL
scattered clouds at 1200 feet AGL
broken clouds at 4400 feet AGL
Weather: no significant weather forecast for this period
Text: PROB40
Forecast period: 1800 UTC 02 December 2022 to 0300 UTC 03 December 2022
Forecast type: TEMPORARY: The following changes expected for less than half the time period
Winds: from the NE (50 degrees) at 20 MPH (17 knots; 8.7 m/s)
gusting to 31 MPH (27 knots; 13.9 m/s)
Visibility: 5 miles (8 km)
Ceiling: 1200 feet AGL
Clouds: broken clouds at 1200 feet AGL
Weather: SHRA  (rain showers)